sensor_id;sensor_type;location;lat;lon;timestamp;P1;durP1;ratioP1;P2;durP2;ratioP2
18818;SDS011;9537;45.594;9.294;2022-09-09T00:00:53;10.20;;;6.65;;
18818;SDS011;9537;45.594;9.294;2022-09-09T00:02:02;10.07;;;7.60;;
18818;SDS011;9537;45.594;9.294;2022-09-09T00:03:14;12.00;;;6.93;;
18818;SDS011;9537;45.594;9.294;2022-09-09T00:04:23;8.57;;;6.70;;
18818;SDS011;9537;45.594;9.294;2022-09-09T00:05:29;10.98;;;7.30;;
18818;SDS011;9537;45.594;9.294;2022-09-09T00:06:43;8.98;;;6.80;;
18818;SDS011;9537;45.594;9.294;2022-09-09T00:07:47;9.15;;;7.10;;
18818;SDS011;9537;45.594;9.294;2022-09-09T00:08:53;12.57;;;7.38;;
18818;SDS011;9537;45.594;9.294;2022-09-09T00:10:04;11.18;;;6.10;;
18818;SDS011;9537;45.594;9.294;2022-09-09T00:11:14;9.98;;;6.72;;
18818;SDS011;9537;45.594;9.294;2022-09-09T00:12:27;12.93;;;7.78;;
18818;SDS011;9537;45.594;9.294;2022-09-09T00:13:37;10.73;;;6.40;;
18818;SDS011;9537;45.594;9.294;2022-09-09T00:14:47;8.13;;;6.43;;
18818;SDS011;9537;45.594;9.294;2022-09-09T00:15:56;9.02;;;7.05;;
18818;SDS011;9537;45.594;9.294;2022-09-09T00:17:03;10.05;;;6.38;;
18818;SDS011;9537;45.594;9.294;2022-09-09T00:18:13;10.88;;;7.15;;
18818;SDS011;9537;45.594;9.294;2022-09-09T00:19:23;8.63;;;7.10;;
18818;SDS011;9537;45.594;9.294;2022-09-09T00:20:30;11.80;;;6.43;;
18818;SDS011;9537;45.594;9.294;2022-09-09T00:21:37;10.18;;;5.90;;
18818;SDS011;9537;45.594;9.294;2022-09-09T00:22:45;12.43;;;7.05;;
18818;SDS011;9537;45.594;9.294;2022-09-09T00:23:53;10.48;;;6.90;;
18818;SDS011;9537;45.594;9.294;2022-09-09T00:24:55;10.30;;;7.07;;
18818;SDS011;9537;45.594;9.294;2022-09-09T00:26:07;7.28;;;5.95;;
18818;SDS011;9537;45.594;9.294;2022-09-09T00:27:16;11.02;;;7.20;;
18818;SDS011;9537;45.594;9.294;2022-09-09T00:28:29;9.60;;;6.55;;
18818;SDS011;9537;45.594;9.294;2022-09-09T00:29:35;9.25;;;6.60;;
18818;SDS011;9537;45.594;9.294;2022-09-09T00:30:44;9.50;;;6.70;;
18818;SDS011;9537;45.594;9.294;2022-09-09T00:31:48;9.90;;;7.32;;
18818;SDS011;9537;45.594;9.294;2022-09-09T00:32:54;7.82;;;6.18;;
18818;SDS011;9537;45.594;9.294;2022-09-09T00:34:02;9.60;;;6.97;;
18818;SDS011;9537;45.594;9.294;2022-09-09T00:35:14;8.18;;;6.80;;
18818;SDS011;9537;45.594;9.294;2022-09-09T00:36:20;10.13;;;7.25;;
18818;SDS011;9537;45.594;9.294;2022-09-09T00:37:25;10.52;;;6.60;;
18818;SDS011;9537;45.594;9.294;2022-09-09T00:38:30;8.15;;;6.75;;
18818;SDS011;9537;45.594;9.294;2022-09-09T00:39:34;9.90;;;6.60;;
18818;SDS011;9537;45.594;9.294;2022-09-09T00:40:45;10.35;;;6.57;;
18818;SDS011;9537;45.594;9.294;2022-09-09T00:41:51;8.90;;;6.60;;
18818;SDS011;9537;45.594;9.294;2022-09-09T00:43:06;9.18;;;6.20;;
18818;SDS011;9537;45.594;9.294;2022-09-09T00:44:21;11.70;;;7.43;;
18818;SDS011;9537;45.594;9.294;2022-09-09T00:45:42;7.32;;;5.68;;
18818;SDS011;9537;45.594;9.294;2022-09-09T00:47:12;7.55;;;6.38;;
18818;SDS011;9537;45.594;9.294;2022-09-09T00:48:29;7.90;;;6.68;;
18818;SDS011;9537;45.594;9.294;2022-09-09T00:49:39;8.80;;;5.75;;
18818;SDS011;9537;45.594;9.294;2022-09-09T00:50:52;9.68;;;6.07;;
18818;SDS011;9537;45.594;9.294;2022-09-09T00:51:59;14.05;;;8.15;;
18818;SDS011;9537;45.594;9.294;2022-09-09T00:53:14;9.48;;;6.50;;
18818;SDS011;9537;45.594;9.294;2022-09-09T00:54:27;14.05;;;6.93;;
18818;SDS011;9537;45.594;9.294;2022-09-09T00:55:40;10.93;;;6.85;;
18818;SDS011;9537;45.594;9.294;2022-09-09T00:56:50;8.88;;;6.78;;
18818;SDS011;9537;45.594;9.294;2022-09-09T00:58:00;9.70;;;6.70;;
18818;SDS011;9537;45.594;9.294;2022-09-09T00:59:03;9.02;;;7.13;;
18818;SDS011;9537;45.594;9.294;2022-09-09T01:00:17;10.30;;;7.63;;
18818;SDS011;9537;45.594;9.294;2022-09-09T01:01:25;10.15;;;7.45;;
18818;SDS011;9537;45.594;9.294;2022-09-09T01:02:26;10.20;;;7.00;;
18818;SDS011;9537;45.594;9.294;2022-09-09T01:03:33;9.93;;;7.03;;
18818;SDS011;9537;45.594;9.294;2022-09-09T01:04:36;13.10;;;6.90;;
18818;SDS011;9537;45.594;9.294;2022-09-09T01:05:39;6.90;;;6.25;;
18818;SDS011;9537;45.594;9.294;2022-09-09T01:06:46;10.77;;;6.55;;
18818;SDS011;9537;45.594;9.294;2022-09-09T01:07:55;11.18;;;6.72;;
18818;SDS011;9537;45.594;9.294;2022-09-09T01:09:03;10.52;;;6.95;;
18818;SDS011;9537;45.594;9.294;2022-09-09T01:10:15;8.95;;;6.85;;
18818;SDS011;9537;45.594;9.294;2022-09-09T01:11:28;9.27;;;6.93;;
18818;SDS011;9537;45.594;9.294;2022-09-09T01:12:38;11.55;;;7.25;;
18818;SDS011;9537;45.594;9.294;2022-09-09T01:13:42;10.38;;;6.80;;
18818;SDS011;9537;45.594;9.294;2022-09-09T01:14:48;10.27;;;6.50;;
18818;SDS011;9537;45.594;9.294;2022-09-09T01:15:52;10.77;;;7.47;;
18818;SDS011;9537;45.594;9.294;2022-09-09T01:16:56;10.38;;;6.43;;
18818;SDS011;9537;45.594;9.294;2022-09-09T01:18:01;9.90;;;6.85;;
18818;SDS011;9537;45.594;9.294;2022-09-09T01:19:08;7.60;;;6.80;;
18818;SDS011;9537;45.594;9.294;2022-09-09T01:20:21;8.10;;;6.45;;
18818;SDS011;9537;45.594;9.294;2022-09-09T01:21:30;11.85;;;7.18;;
18818;SDS011;9537;45.594;9.294;2022-09-09T01:22:41;10.38;;;6.82;;
18818;SDS011;9537;45.594;9.294;2022-09-09T01:23:56;9.23;;;7.40;;
18818;SDS011;9537;45.594;9.294;2022-09-09T01:25:20;11.20;;;6.80;;
18818;SDS011;9537;45.594;9.294;2022-09-09T01:26:28;13.88;;;7.28;;
18818;SDS011;9537;45.594;9.294;2022-09-09T01:27:32;9.73;;;7.85;;
18818;SDS011;9537;45.594;9.294;2022-09-09T01:28:36;12.43;;;7.78;;
18818;SDS011;9537;45.594;9.294;2022-09-09T01:29:39;11.13;;;7.45;;
18818;SDS011;9537;45.594;9.294;2022-09-09T01:30:41;7.38;;;6.45;;
18818;SDS011;9537;45.594;9.294;2022-09-09T01:31:51;9.10;;;6.90;;
18818;SDS011;9537;45.594;9.294;2022-09-09T01:32:55;10.70;;;7.47;;
18818;SDS011;9537;45.594;9.294;2022-09-09T01:34:00;9.32;;;6.38;;
18818;SDS011;9537;45.594;9.294;2022-09-09T01:35:02;12.68;;;6.57;;
18818;SDS011;9537;45.594;9.294;2022-09-09T01:36:05;8.93;;;6.50;;
18818;SDS011;9537;45.594;9.294;2022-09-09T01:37:12;9.45;;;6.60;;
18818;SDS011;9537;45.594;9.294;2022-09-09T01:38:15;12.80;;;7.32;;
18818;SDS011;9537;45.594;9.294;2022-09-09T01:39:16;9.68;;;7.20;;
18818;SDS011;9537;45.594;9.294;2022-09-09T01:40:18;7.43;;;6.32;;
18818;SDS011;9537;45.594;9.294;2022-09-09T01:41:20;7.93;;;6.63;;
18818;SDS011;9537;45.594;9.294;2022-09-09T01:42:23;9.30;;;6.15;;
18818;SDS011;9537;45.594;9.294;2022-09-09T01:43:25;9.05;;;6.10;;
18818;SDS011;9537;45.594;9.294;2022-09-09T01:44:28;8.00;;;7.00;;
18818;SDS011;9537;45.594;9.294;2022-09-09T01:45:31;12.70;;;7.25;;
18818;SDS011;9537;45.594;9.294;2022-09-09T01:46:32;9.90;;;7.35;;
18818;SDS011;9537;45.594;9.294;2022-09-09T01:47:34;12.70;;;7.25;;
18818;SDS011;9537;45.594;9.294;2022-09-09T01:48:37;8.85;;;6.25;;
18818;SDS011;9537;45.594;9.294;2022-09-09T01:49:38;8.27;;;5.88;;
18818;SDS011;9537;45.594;9.294;2022-09-09T01:50:40;7.85;;;6.30;;
18818;SDS011;9537;45.594;9.294;2022-09-09T01:51:41;10.82;;;6.45;;
18818;SDS011;9537;45.594;9.294;2022-09-09T01:52:45;8.68;;;5.93;;
18818;SDS011;9537;45.594;9.294;2022-09-09T01:53:50;7.93;;;6.03;;
18818;SDS011;9537;45.594;9.294;2022-09-09T01:54:52;14.40;;;7.10;;
18818;SDS011;9537;45.594;9.294;2022-09-09T01:55:56;9.73;;;7.05;;
18818;SDS011;9537;45.594;9.294;2022-09-09T01:57:06;10.57;;;7.50;;
18818;SDS011;9537;45.594;9.294;2022-09-09T01:58:20;9.88;;;7.22;;
18818;SDS011;9537;45.594;9.294;2022-09-09T01:59:44;8.35;;;6.82;;
18818;SDS011;9537;45.594;9.294;2022-09-09T02:00:53;12.38;;;8.02;;
18818;SDS011;9537;45.594;9.294;2022-09-09T02:02:06;11.50;;;7.93;;
18818;SDS011;9537;45.594;9.294;2022-09-09T02:03:14;10.68;;;7.63;;
18818;SDS011;9537;45.594;9.294;2022-09-09T02:04:29;8.80;;;6.93;;
18818;SDS011;9537;45.594;9.294;2022-09-09T02:05:37;7.60;;;6.28;;
18818;SDS011;9537;45.594;9.294;2022-09-09T02:06:41;8.65;;;6.20;;
18818;SDS011;9537;45.594;9.294;2022-09-09T02:07:46;8.48;;;6.80;;
18818;SDS011;9537;45.594;9.294;2022-09-09T02:08:50;9.77;;;6.88;;
18818;SDS011;9537;45.594;9.294;2022-09-09T02:09:55;11.70;;;6.65;;
18818;SDS011;9537;45.594;9.294;2022-09-09T02:11:04;10.20;;;7.00;;
18818;SDS011;9537;45.594;9.294;2022-09-09T02:12:08;14.95;;;7.88;;
18818;SDS011;9537;45.594;9.294;2022-09-09T02:13:16;9.85;;;7.22;;
18818;SDS011;9537;45.594;9.294;2022-09-09T02:14:21;9.82;;;6.90;;
18818;SDS011;9537;45.594;9.294;2022-09-09T02:15:28;9.65;;;6.75;;
18818;SDS011;9537;45.594;9.294;2022-09-09T02:16:34;10.90;;;6.85;;
18818;SDS011;9537;45.594;9.294;2022-09-09T02:17:40;10.27;;;6.93;;
18818;SDS011;9537;45.594;9.294;2022-09-09T02:18:43;8.40;;;6.40;;
18818;SDS011;9537;45.594;9.294;2022-09-09T02:19:49;11.13;;;6.90;;
18818;SDS011;9537;45.594;9.294;2022-09-09T02:20:54;11.88;;;7.65;;
18818;SDS011;9537;45.594;9.294;2022-09-09T02:21:59;11.48;;;6.82;;
18818;SDS011;9537;45.594;9.294;2022-09-09T02:23:01;11.75;;;6.78;;
18818;SDS011;9537;45.594;9.294;2022-09-09T02:24:06;10.93;;;6.60;;
18818;SDS011;9537;45.594;9.294;2022-09-09T02:25:11;8.45;;;5.90;;
18818;SDS011;9537;45.594;9.294;2022-09-09T02:26:16;8.35;;;6.35;;
18818;SDS011;9537;45.594;9.294;2022-09-09T02:27:21;12.50;;;6.20;;
18818;SDS011;9537;45.594;9.294;2022-09-09T02:28:26;9.80;;;5.75;;
18818;SDS011;9537;45.594;9.294;2022-09-09T02:29:31;9.43;;;5.72;;
18818;SDS011;9537;45.594;9.294;2022-09-09T02:30:36;9.15;;;5.45;;
18818;SDS011;9537;45.594;9.294;2022-09-09T02:31:38;9.20;;;5.90;;
18818;SDS011;9537;45.594;9.294;2022-09-09T02:32:42;10.32;;;6.00;;
18818;SDS011;9537;45.594;9.294;2022-09-09T02:33:49;6.65;;;4.95;;
18818;SDS011;9537;45.594;9.294;2022-09-09T02:34:56;7.63;;;6.10;;
18818;SDS011;9537;45.594;9.294;2022-09-09T02:36:01;9.57;;;6.40;;
18818;SDS011;9537;45.594;9.294;2022-09-09T02:37:07;10.05;;;6.13;;
18818;SDS011;9537;45.594;9.294;2022-09-09T02:38:10;10.68;;;6.38;;
18818;SDS011;9537;45.594;9.294;2022-09-09T02:39:15;9.00;;;5.97;;
18818;SDS011;9537;45.594;9.294;2022-09-09T02:40:16;8.88;;;5.95;;
18818;SDS011;9537;45.594;9.294;2022-09-09T02:41:18;8.77;;;6.70;;
18818;SDS011;9537;45.594;9.294;2022-09-09T02:42:22;9.18;;;5.47;;
18818;SDS011;9537;45.594;9.294;2022-09-09T02:43:25;9.63;;;6.40;;
18818;SDS011;9537;45.594;9.294;2022-09-09T02:44:31;9.90;;;6.10;;
18818;SDS011;9537;45.594;9.294;2022-09-09T02:45:35;8.80;;;6.13;;
18818;SDS011;9537;45.594;9.294;2022-09-09T02:46:58;7.45;;;5.63;;
18818;SDS011;9537;45.594;9.294;2022-09-09T02:48:14;10.80;;;5.60;;
18818;SDS011;9537;45.594;9.294;2022-09-09T02:49:22;8.25;;;5.80;;
18818;SDS011;9537;45.594;9.294;2022-09-09T02:50:31;9.63;;;5.28;;
18818;SDS011;9537;45.594;9.294;2022-09-09T02:51:35;8.95;;;6.30;;
18818;SDS011;9537;45.594;9.294;2022-09-09T02:52:50;8.52;;;5.75;;
18818;SDS011;9537;45.594;9.294;2022-09-09T02:54:02;8.63;;;5.70;;
18818;SDS011;9537;45.594;9.294;2022-09-09T02:55:12;8.70;;;6.03;;
18818;SDS011;9537;45.594;9.294;2022-09-09T02:56:20;8.15;;;5.88;;
18818;SDS011;9537;45.594;9.294;2022-09-09T02:57:28;8.38;;;5.70;;
18818;SDS011;9537;45.594;9.294;2022-09-09T02:58:33;8.20;;;5.47;;
18818;SDS011;9537;45.594;9.294;2022-09-09T02:59:35;7.30;;;5.95;;
18818;SDS011;9537;45.594;9.294;2022-09-09T03:00:37;11.75;;;6.30;;
18818;SDS011;9537;45.594;9.294;2022-09-09T03:01:41;7.43;;;5.40;;
18818;SDS011;9537;45.594;9.294;2022-09-09T03:02:42;8.95;;;5.63;;
18818;SDS011;9537;45.594;9.294;2022-09-09T03:03:46;6.72;;;5.35;;
18818;SDS011;9537;45.594;9.294;2022-09-09T03:04:47;7.70;;;5.13;;
18818;SDS011;9537;45.594;9.294;2022-09-09T03:05:51;8.40;;;5.32;;
18818;SDS011;9537;45.594;9.294;2022-09-09T03:06:53;7.15;;;5.25;;
18818;SDS011;9537;45.594;9.294;2022-09-09T03:07:55;7.72;;;4.88;;
18818;SDS011;9537;45.594;9.294;2022-09-09T03:08:56;8.98;;;5.03;;
18818;SDS011;9537;45.594;9.294;2022-09-09T03:10:01;8.25;;;5.68;;
18818;SDS011;9537;45.594;9.294;2022-09-09T03:11:01;7.20;;;5.22;;
18818;SDS011;9537;45.594;9.294;2022-09-09T03:12:03;6.88;;;5.28;;
18818;SDS011;9537;45.594;9.294;2022-09-09T03:13:05;7.45;;;5.25;;
18818;SDS011;9537;45.594;9.294;2022-09-09T03:14:08;8.07;;;4.72;;
18818;SDS011;9537;45.594;9.294;2022-09-09T03:15:11;5.80;;;4.10;;
18818;SDS011;9537;45.594;9.294;2022-09-09T03:16:14;9.23;;;5.80;;
18818;SDS011;9537;45.594;9.294;2022-09-09T03:17:15;6.70;;;4.78;;
18818;SDS011;9537;45.594;9.294;2022-09-09T03:18:18;6.60;;;4.68;;
18818;SDS011;9537;45.594;9.294;2022-09-09T03:19:19;6.97;;;4.43;;
18818;SDS011;9537;45.594;9.294;2022-09-09T03:20:21;6.47;;;5.05;;
18818;SDS011;9537;45.594;9.294;2022-09-09T03:21:23;8.55;;;5.13;;
18818;SDS011;9537;45.594;9.294;2022-09-09T03:22:25;5.07;;;4.50;;
18818;SDS011;9537;45.594;9.294;2022-09-09T03:23:26;5.93;;;4.63;;
18818;SDS011;9537;45.594;9.294;2022-09-09T03:24:28;7.63;;;4.80;;
18818;SDS011;9537;45.594;9.294;2022-09-09T03:25:29;9.77;;;4.43;;
18818;SDS011;9537;45.594;9.294;2022-09-09T03:26:32;6.82;;;4.30;;
18818;SDS011;9537;45.594;9.294;2022-09-09T03:27:33;6.70;;;4.10;;
18818;SDS011;9537;45.594;9.294;2022-09-09T03:28:35;6.22;;;3.97;;
18818;SDS011;9537;45.594;9.294;2022-09-09T03:29:38;7.05;;;4.10;;
18818;SDS011;9537;45.594;9.294;2022-09-09T03:30:40;7.30;;;4.15;;
18818;SDS011;9537;45.594;9.294;2022-09-09T03:31:41;7.15;;;3.78;;
18818;SDS011;9537;45.594;9.294;2022-09-09T03:32:43;7.10;;;4.50;;
18818;SDS011;9537;45.594;9.294;2022-09-09T03:33:44;9.43;;;4.20;;
18818;SDS011;9537;45.594;9.294;2022-09-09T03:34:46;7.03;;;4.35;;
18818;SDS011;9537;45.594;9.294;2022-09-09T03:35:50;6.90;;;4.20;;
18818;SDS011;9537;45.594;9.294;2022-09-09T03:36:52;5.93;;;4.40;;
18818;SDS011;9537;45.594;9.294;2022-09-09T03:37:53;8.82;;;4.78;;
18818;SDS011;9537;45.594;9.294;2022-09-09T03:38:56;12.63;;;4.70;;
18818;SDS011;9537;45.594;9.294;2022-09-09T03:39:58;13.15;;;5.25;;
18818;SDS011;9537;45.594;9.294;2022-09-09T03:41:00;9.23;;;4.72;;
18818;SDS011;9537;45.594;9.294;2022-09-09T03:42:02;9.23;;;4.60;;
18818;SDS011;9537;45.594;9.294;2022-09-09T03:43:04;7.40;;;4.93;;
18818;SDS011;9537;45.594;9.294;2022-09-09T03:44:06;9.45;;;4.95;;
18818;SDS011;9537;45.594;9.294;2022-09-09T03:45:09;6.40;;;4.70;;
18818;SDS011;9537;45.594;9.294;2022-09-09T03:46:13;8.00;;;5.10;;
18818;SDS011;9537;45.594;9.294;2022-09-09T03:47:14;5.40;;;4.35;;
18818;SDS011;9537;45.594;9.294;2022-09-09T03:48:16;8.43;;;5.22;;
18818;SDS011;9537;45.594;9.294;2022-09-09T03:49:17;9.38;;;4.55;;
18818;SDS011;9537;45.594;9.294;2022-09-09T03:50:20;11.40;;;4.72;;
18818;SDS011;9537;45.594;9.294;2022-09-09T03:51:21;10.40;;;4.75;;
18818;SDS011;9537;45.594;9.294;2022-09-09T03:52:23;7.97;;;4.60;;
18818;SDS011;9537;45.594;9.294;2022-09-09T03:53:25;7.07;;;4.22;;
18818;SDS011;9537;45.594;9.294;2022-09-09T03:54:27;6.00;;;4.35;;
18818;SDS011;9537;45.594;9.294;2022-09-09T03:55:28;5.28;;;3.95;;
18818;SDS011;9537;45.594;9.294;2022-09-09T03:56:30;7.68;;;4.72;;
18818;SDS011;9537;45.594;9.294;2022-09-09T03:57:32;5.95;;;4.65;;
18818;SDS011;9537;45.594;9.294;2022-09-09T03:58:35;8.80;;;4.60;;
18818;SDS011;9537;45.594;9.294;2022-09-09T03:59:37;5.78;;;4.40;;
18818;SDS011;9537;45.594;9.294;2022-09-09T04:00:40;6.60;;;5.20;;
18818;SDS011;9537;45.594;9.294;2022-09-09T04:01:45;9.13;;;5.88;;
18818;SDS011;9537;45.594;9.294;2022-09-09T04:02:47;8.45;;;6.03;;
18818;SDS011;9537;45.594;9.294;2022-09-09T04:03:50;8.32;;;5.60;;
18818;SDS011;9537;45.594;9.294;2022-09-09T04:04:52;10.95;;;6.38;;
18818;SDS011;9537;45.594;9.294;2022-09-09T04:05:54;9.90;;;5.95;;
18818;SDS011;9537;45.594;9.294;2022-09-09T04:06:58;10.10;;;6.50;;
18818;SDS011;9537;45.594;9.294;2022-09-09T04:07:59;10.73;;;6.38;;
18818;SDS011;9537;45.594;9.294;2022-09-09T04:09:02;11.38;;;7.18;;
18818;SDS011;9537;45.594;9.294;2022-09-09T04:10:04;10.15;;;7.05;;
18818;SDS011;9537;45.594;9.294;2022-09-09T04:11:07;10.80;;;8.43;;
18818;SDS011;9537;45.594;9.294;2022-09-09T04:12:09;13.10;;;9.77;;
18818;SDS011;9537;45.594;9.294;2022-09-09T04:13:13;15.57;;;10.60;;
18818;SDS011;9537;45.594;9.294;2022-09-09T04:14:16;16.30;;;10.65;;
18818;SDS011;9537;45.594;9.294;2022-09-09T04:15:18;14.93;;;11.35;;
18818;SDS011;9537;45.594;9.294;2022-09-09T04:16:21;13.63;;;10.05;;
18818;SDS011;9537;45.594;9.294;2022-09-09T04:17:22;19.65;;;11.60;;
18818;SDS011;9537;45.594;9.294;2022-09-09T04:18:24;16.35;;;12.02;;
18818;SDS011;9537;45.594;9.294;2022-09-09T04:19:28;14.93;;;10.38;;
18818;SDS011;9537;45.594;9.294;2022-09-09T04:20:29;15.07;;;10.00;;
18818;SDS011;9537;45.594;9.294;2022-09-09T04:21:31;12.40;;;8.35;;
18818;SDS011;9537;45.594;9.294;2022-09-09T04:22:32;12.05;;;8.90;;
18818;SDS011;9537;45.594;9.294;2022-09-09T04:23:34;15.93;;;9.77;;
18818;SDS011;9537;45.594;9.294;2022-09-09T04:24:36;12.90;;;7.97;;
18818;SDS011;9537;45.594;9.294;2022-09-09T04:25:38;12.32;;;9.20;;
18818;SDS011;9537;45.594;9.294;2022-09-09T04:26:45;14.10;;;10.32;;
18818;SDS011;9537;45.594;9.294;2022-09-09T04:27:47;12.52;;;9.77;;
18818;SDS011;9537;45.594;9.294;2022-09-09T04:28:53;14.80;;;9.02;;
18818;SDS011;9537;45.594;9.294;2022-09-09T04:29:56;11.60;;;8.68;;
18818;SDS011;9537;45.594;9.294;2022-09-09T04:31:03;13.10;;;8.82;;
18818;SDS011;9537;45.594;9.294;2022-09-09T04:32:07;13.77;;;10.18;;
18818;SDS011;9537;45.594;9.294;2022-09-09T04:33:08;17.23;;;10.40;;
18818;SDS011;9537;45.594;9.294;2022-09-09T04:34:11;13.52;;;9.18;;
18818;SDS011;9537;45.594;9.294;2022-09-09T04:35:12;12.57;;;10.07;;
18818;SDS011;9537;45.594;9.294;2022-09-09T04:36:14;15.32;;;10.85;;
18818;SDS011;9537;45.594;9.294;2022-09-09T04:37:15;14.73;;;11.43;;
18818;SDS011;9537;45.594;9.294;2022-09-09T04:38:17;13.13;;;9.85;;
18818;SDS011;9537;45.594;9.294;2022-09-09T04:39:18;16.30;;;11.00;;
18818;SDS011;9537;45.594;9.294;2022-09-09T04:40:21;13.68;;;10.75;;
18818;SDS011;9537;45.594;9.294;2022-09-09T04:41:22;10.80;;;9.57;;
18818;SDS011;9537;45.594;9.294;2022-09-09T04:42:24;17.02;;;11.63;;
18818;SDS011;9537;45.594;9.294;2022-09-09T04:43:28;18.15;;;11.60;;
18818;SDS011;9537;45.594;9.294;2022-09-09T04:44:31;11.95;;;10.30;;
18818;SDS011;9537;45.594;9.294;2022-09-09T04:45:32;14.20;;;10.15;;
18818;SDS011;9537;45.594;9.294;2022-09-09T04:46:33;11.95;;;9.73;;
18818;SDS011;9537;45.594;9.294;2022-09-09T04:47:37;13.98;;;9.57;;
18818;SDS011;9537;45.594;9.294;2022-09-09T04:48:38;9.27;;;7.97;;
18818;SDS011;9537;45.594;9.294;2022-09-09T04:49:40;11.93;;;7.65;;
18818;SDS011;9537;45.594;9.294;2022-09-09T04:50:41;8.50;;;5.88;;
18818;SDS011;9537;45.594;9.294;2022-09-09T04:51:43;8.90;;;5.95;;
18818;SDS011;9537;45.594;9.294;2022-09-09T04:52:44;7.72;;;5.05;;
18818;SDS011;9537;45.594;9.294;2022-09-09T04:53:47;6.38;;;4.90;;
18818;SDS011;9537;45.594;9.294;2022-09-09T04:54:50;4.43;;;3.65;;
18818;SDS011;9537;45.594;9.294;2022-09-09T04:55:52;7.50;;;3.88;;
18818;SDS011;9537;45.594;9.294;2022-09-09T04:57:02;5.05;;;3.40;;
18818;SDS011;9537;45.594;9.294;2022-09-09T04:58:05;6.55;;;3.20;;
18818;SDS011;9537;45.594;9.294;2022-09-09T04:59:07;7.60;;;3.72;;
18818;SDS011;9537;45.594;9.294;2022-09-09T05:00:10;4.63;;;3.13;;
18818;SDS011;9537;45.594;9.294;2022-09-09T05:01:14;8.55;;;3.03;;
18818;SDS011;9537;45.594;9.294;2022-09-09T05:02:18;3.75;;;2.95;;
18818;SDS011;9537;45.594;9.294;2022-09-09T05:03:21;3.80;;;2.35;;
18818;SDS011;9537;45.594;9.294;2022-09-09T05:04:23;4.22;;;3.20;;
18818;SDS011;9537;45.594;9.294;2022-09-09T05:05:24;2.90;;;2.60;;
18818;SDS011;9537;45.594;9.294;2022-09-09T05:06:26;3.88;;;2.50;;
18818;SDS011;9537;45.594;9.294;2022-09-09T05:07:27;5.50;;;3.10;;
18818;SDS011;9537;45.594;9.294;2022-09-09T05:08:31;4.82;;;2.53;;
18818;SDS011;9537;45.594;9.294;2022-09-09T05:09:32;3.03;;;2.10;;
18818;SDS011;9537;45.594;9.294;2022-09-09T05:10:36;2.80;;;1.90;;
18818;SDS011;9537;45.594;9.294;2022-09-09T05:11:38;4.30;;;2.20;;
18818;SDS011;9537;45.594;9.294;2022-09-09T05:12:40;3.10;;;1.75;;
18818;SDS011;9537;45.594;9.294;2022-09-09T05:13:41;3.67;;;1.60;;
18818;SDS011;9537;45.594;9.294;2022-09-09T05:14:43;1.77;;;1.67;;
18818;SDS011;9537;45.594;9.294;2022-09-09T05:15:50;4.03;;;1.65;;
18818;SDS011;9537;45.594;9.294;2022-09-09T05:16:53;1.83;;;1.23;;
18818;SDS011;9537;45.594;9.294;2022-09-09T05:17:56;2.08;;;1.33;;
18818;SDS011;9537;45.594;9.294;2022-09-09T05:19:00;4.38;;;1.40;;
18818;SDS011;9537;45.594;9.294;2022-09-09T05:20:03;1.50;;;1.30;;
18818;SDS011;9537;45.594;9.294;2022-09-09T05:21:06;3.78;;;1.30;;
18818;SDS011;9537;45.594;9.294;2022-09-09T05:22:07;1.92;;;1.17;;
18818;SDS011;9537;45.594;9.294;2022-09-09T05:23:09;1.05;;;0.95;;
18818;SDS011;9537;45.594;9.294;2022-09-09T05:24:11;1.65;;;1.10;;
18818;SDS011;9537;45.594;9.294;2022-09-09T05:25:13;1.52;;;1.20;;
18818;SDS011;9537;45.594;9.294;2022-09-09T05:26:15;1.58;;;1.10;;
18818;SDS011;9537;45.594;9.294;2022-09-09T05:27:18;1.45;;;0.68;;
18818;SDS011;9537;45.594;9.294;2022-09-09T05:28:19;1.17;;;0.90;;
18818;SDS011;9537;45.594;9.294;2022-09-09T05:29:21;1.13;;;0.80;;
18818;SDS011;9537;45.594;9.294;2022-09-09T05:30:23;3.13;;;1.00;;
18818;SDS011;9537;45.594;9.294;2022-09-09T05:31:26;1.65;;;1.02;;
18818;SDS011;9537;45.594;9.294;2022-09-09T05:32:30;1.08;;;0.80;;
18818;SDS011;9537;45.594;9.294;2022-09-09T05:33:33;0.80;;;0.60;;
18818;SDS011;9537;45.594;9.294;2022-09-09T05:34:36;1.00;;;0.70;;
18818;SDS011;9537;45.594;9.294;2022-09-09T05:35:39;0.80;;;0.80;;
18818;SDS011;9537;45.594;9.294;2022-09-09T05:36:41;2.33;;;0.98;;
18818;SDS011;9537;45.594;9.294;2022-09-09T05:37:43;0.80;;;0.68;;
18818;SDS011;9537;45.594;9.294;2022-09-09T05:38:46;1.30;;;0.98;;
18818;SDS011;9537;45.594;9.294;2022-09-09T05:39:48;1.77;;;1.20;;
18818;SDS011;9537;45.594;9.294;2022-09-09T05:40:50;1.35;;;0.90;;
18818;SDS011;9537;45.594;9.294;2022-09-09T05:41:52;1.10;;;0.80;;
18818;SDS011;9537;45.594;9.294;2022-09-09T05:42:59;1.48;;;0.88;;
18818;SDS011;9537;45.594;9.294;2022-09-09T05:44:01;1.92;;;0.88;;
18818;SDS011;9537;45.594;9.294;2022-09-09T05:45:04;2.80;;;0.98;;
18818;SDS011;9537;45.594;9.294;2022-09-09T05:46:06;1.30;;;0.80;;
18818;SDS011;9537;45.594;9.294;2022-09-09T05:47:09;2.80;;;1.10;;
18818;SDS011;9537;45.594;9.294;2022-09-09T05:48:10;3.67;;;1.05;;
18818;SDS011;9537;45.594;9.294;2022-09-09T05:49:12;1.77;;;1.20;;
18818;SDS011;9537;45.594;9.294;2022-09-09T05:50:14;3.88;;;1.67;;
18818;SDS011;9537;45.594;9.294;2022-09-09T05:51:17;2.97;;;1.40;;
18818;SDS011;9537;45.594;9.294;2022-09-09T05:52:21;2.60;;;1.42;;
18818;SDS011;9537;45.594;9.294;2022-09-09T05:53:24;2.30;;;1.40;;
18818;SDS011;9537;45.594;9.294;2022-09-09T05:54:25;1.23;;;1.13;;
18818;SDS011;9537;45.594;9.294;2022-09-09T05:55:27;2.15;;;1.45;;
18818;SDS011;9537;45.594;9.294;2022-09-09T05:56:28;3.40;;;1.45;;
18818;SDS011;9537;45.594;9.294;2022-09-09T05:57:33;3.35;;;1.48;;
18818;SDS011;9537;45.594;9.294;2022-09-09T05:58:34;2.50;;;1.30;;
18818;SDS011;9537;45.594;9.294;2022-09-09T05:59:36;2.40;;;1.15;;
18818;SDS011;9537;45.594;9.294;2022-09-09T06:00:37;1.67;;;1.08;;
18818;SDS011;9537;45.594;9.294;2022-09-09T06:01:39;2.05;;;1.23;;
18818;SDS011;9537;45.594;9.294;2022-09-09T06:02:40;1.35;;;1.20;;
18818;SDS011;9537;45.594;9.294;2022-09-09T06:03:43;3.88;;;1.45;;
18818;SDS011;9537;45.594;9.294;2022-09-09T06:04:45;2.08;;;1.20;;
18818;SDS011;9537;45.594;9.294;2022-09-09T06:05:49;2.03;;;1.25;;
18818;SDS011;9537;45.594;9.294;2022-09-09T06:06:57;1.67;;;0.98;;
18818;SDS011;9537;45.594;9.294;2022-09-09T06:07:59;2.70;;;1.55;;
18818;SDS011;9537;45.594;9.294;2022-09-09T06:09:01;3.65;;;1.40;;
18818;SDS011;9537;45.594;9.294;2022-09-09T06:10:04;2.63;;;1.40;;
18818;SDS011;9537;45.594;9.294;2022-09-09T06:11:06;3.20;;;1.27;;
18818;SDS011;9537;45.594;9.294;2022-09-09T06:12:11;2.58;;;1.63;;
18818;SDS011;9537;45.594;9.294;2022-09-09T06:13:12;2.88;;;1.70;;
18818;SDS011;9537;45.594;9.294;2022-09-09T06:14:14;2.80;;;1.42;;
18818;SDS011;9537;45.594;9.294;2022-09-09T06:15:15;3.03;;;1.50;;
18818;SDS011;9537;45.594;9.294;2022-09-09T06:16:18;3.10;;;1.42;;
18818;SDS011;9537;45.594;9.294;2022-09-09T06:17:20;1.92;;;1.13;;
18818;SDS011;9537;45.594;9.294;2022-09-09T06:18:22;1.63;;;1.40;;
18818;SDS011;9537;45.594;9.294;2022-09-09T06:19:23;1.27;;;1.10;;
18818;SDS011;9537;45.594;9.294;2022-09-09T06:20:27;1.98;;;1.10;;
18818;SDS011;9537;45.594;9.294;2022-09-09T06:21:33;1.60;;;1.25;;
18818;SDS011;9537;45.594;9.294;2022-09-09T06:22:38;2.90;;;1.30;;
18818;SDS011;9537;45.594;9.294;2022-09-09T06:23:40;1.85;;;1.23;;
18818;SDS011;9537;45.594;9.294;2022-09-09T06:24:42;1.98;;;1.30;;
18818;SDS011;9537;45.594;9.294;2022-09-09T06:25:45;1.80;;;1.33;;
18818;SDS011;9537;45.594;9.294;2022-09-09T06:26:46;1.83;;;1.10;;
18818;SDS011;9537;45.594;9.294;2022-09-09T06:27:48;2.60;;;1.40;;
18818;SDS011;9537;45.594;9.294;2022-09-09T06:28:50;2.47;;;1.27;;
18818;SDS011;9537;45.594;9.294;2022-09-09T06:29:53;4.68;;;1.25;;
18818;SDS011;9537;45.594;9.294;2022-09-09T06:30:57;1.13;;;1.00;;
18818;SDS011;9537;45.594;9.294;2022-09-09T06:32:00;3.15;;;1.23;;
18818;SDS011;9537;45.594;9.294;2022-09-09T06:33:01;2.70;;;1.20;;